Storm Events Database

Event Details

Event Lightning
State TEXAS
County/Area COLLIN
WFO FWD
Report Source Newspaper
NCDC Data Source CSV
Begin Date 2007-04-24 15:30:00.0 CST-6
Begin Location 0N MCKINNEY
Begin Lat/Lon 33.2/-96.62
End Date 2007-04-24 15:30:00.0 CST-6
Deaths Direct/Indirect 0/0 (fatality details below, when available...)
Injuries Direct/Indirect 0/0
Property Damage 20.00K
Crop Damage 0.00K
Episode Narrative Low level moisture was in place across North Texas as an upper level low pressure system moved into the western half of the state. Large hail reports along with damaging winds and flash flooding were common throughout this twelve-hour event.
Event Narrative Lightning struck a house on Blue Sage Drive and caused damage to the electrical system.


     ‚Äč



All events for this episode:

Location County/Zone St. Date Time T.Z. Type Mag Dth Inj PrD CrD
Totals: 0 1 2.525M 0.00K
LEAGUEVILLE HENDERSON CO. TX 04/24/2007 10:30 CST-6 Thunderstorm Wind 50 kts. EG 0 0 5.00K 0.00K
NEWCASTLE YOUNG CO. TX 04/24/2007 12:08 CST-6 Hail 0.75 in. 0 0 0.00K 0.00K
GLEN ROSE SOMERVELL CO. TX 04/24/2007 12:45 CST-6 Thunderstorm Wind 50 kts. EG 0 0 1.00K 0.00K
GODLEY JOHNSON CO. TX 04/24/2007 12:52 CST-6 Thunderstorm Wind 50 kts. EG 0 0 10.00K 0.00K
AZLE TARRANT CO. TX 04/24/2007 13:00 CST-6 Thunderstorm Wind 50 kts. EG 0 0 2.00K 0.00K
GRANBURY HOOD CO. TX 04/24/2007 13:00 CST-6 Tornado EF1 0 0 200.00K 0.00K
DENTON DENTON CO. TX 04/24/2007 13:20 CST-6 Tornado EF0 0 0 40.00K 0.00K
EULESS TARRANT CO. TX 04/24/2007 13:40 CST-6 Hail 1.00 in. 0 0 0.00K 0.00K
JACKSBORO MUNI ARPT JACK CO. TX 04/24/2007 13:41 CST-6 Thunderstorm Wind 52 kts. MG 0 0 0.00K 0.00K
DALLAS DALLAS CO. TX 04/24/2007 13:45 CST-6 Thunderstorm Wind 60 kts. EG 0 0 0.00K 0.00K
DALLAS-FT WORTH INTL DALLAS CO. TX 04/24/2007 13:46 CST-6 Thunderstorm Wind 55 kts. MG 0 0 0.00K 0.00K
HURST TARRANT CO. TX 04/24/2007 13:50 CST-6 Flash Flood 0 0 0.00K 0.00K
CISCO EASTLAND CO. TX 04/24/2007 13:58 CST-6 Hail 0.75 in. 0 0 0.00K 0.00K
GUNTER GRAYSON CO. TX 04/24/2007 14:00 CST-6 Hail 1.00 in. 0 0 0.00K 0.00K
GUNTER GRAYSON CO. TX 04/24/2007 14:00 CST-6 Thunderstorm Wind 50 kts. EG 0 0 0.00K 0.00K
DENTON DENTON CO. TX 04/24/2007 14:10 CST-6 Flash Flood 0 0 2.000M 0.00K
ALLEN COLLIN CO. TX 04/24/2007 14:23 CST-6 Thunderstorm Wind 50 kts. EG 0 0 5.00K 0.00K
MELISSA COLLIN CO. TX 04/24/2007 14:26 CST-6 Hail 1.00 in. 0 0 0.00K 0.00K
BLUE RIDGE COLLIN CO. TX 04/24/2007 14:52 CST-6 Hail 1.75 in. 0 0 5.00K 0.00K
CELESTE HUNT CO. TX 04/24/2007 15:29 CST-6 Thunderstorm Wind 50 kts. EG 0 0 0.00K 0.00K
MCKINNEY COLLIN CO. TX 04/24/2007 15:30 CST-6 Lightning 0 0 20.00K 0.00K
TIGERTOWN LAMAR CO. TX 04/24/2007 16:17 CST-6 Thunderstorm Wind 56 kts. EG 0 1 5.00K 0.00K
MERCERS GAP COMANCHE CO. TX 04/24/2007 16:35 CST-6 Hail 0.75 in. 0 0 0.00K 0.00K
DECATUR WISE CO. TX 04/24/2007 16:59 CST-6 Flash Flood 0 0 0.00K 0.00K
WEATHERFORD PARKER CO. TX 04/24/2007 17:12 CST-6 Hail 1.00 in. 0 0 0.00K 0.00K
WEATHERFORD PARKER CO. TX 04/24/2007 17:18 CST-6 Hail 0.88 in. 0 0 0.00K 0.00K
WEATHERFORD PARKER CO. TX 04/24/2007 17:22 CST-6 Thunderstorm Wind 50 kts. EG 0 0 10.00K 0.00K
BAILEY FANNIN CO. TX 04/24/2007 18:00 CST-6 Flash Flood 0 0 0.00K 0.00K
PEDEN TARRANT CO. TX 04/24/2007 18:00 CST-6 Thunderstorm Wind 50 kts. EG 0 0 5.00K 0.00K
STRAWN PALO PINTO CO. TX 04/24/2007 18:06 CST-6 Hail 2.00 in. 0 0 10.00K 0.00K
BARTONVILLE DENTON CO. TX 04/24/2007 18:19 CST-6 Tornado EF1 0 0 100.00K 0.00K
GORDON PALO PINTO CO. TX 04/24/2007 18:24 CST-6 Hail 1.75 in. 0 0 10.00K 0.00K
AUTHON PARKER CO. TX 04/24/2007 18:41 CST-6 Flash Flood 0 0 0.00K 0.00K
COMANCHE COMANCHE CO. TX 04/24/2007 18:43 CST-6 Hail 0.75 in. 0 0 0.00K 0.00K
MINERAL WELLS PALO PINTO CO. TX 04/24/2007 18:44 CST-6 Thunderstorm Wind 55 kts. MG 0 0 0.00K 0.00K
VANDYKE COMANCHE CO. TX 04/24/2007 18:47 CST-6 Hail 1.25 in. 0 0 0.00K 0.00K
COMANCHE COMANCHE CO. TX 04/24/2007 18:52 CST-6 Hail 0.75 in. 0 0 0.00K 0.00K
TIOGA GRAYSON CO. TX 04/24/2007 19:00 CST-6 Flash Flood 0 0 0.00K 0.00K
COMANCHE COMANCHE CO. TX 04/24/2007 19:05 CST-6 Thunderstorm Wind 51 kts. MG 0 0 0.00K 0.00K
WEATHERFORD PARKER CO. TX 04/24/2007 19:20 CST-6 Hail 0.88 in. 0 0 0.00K 0.00K
MCKINNEY COLLIN CO. TX 04/24/2007 19:35 CST-6 Thunderstorm Wind 50 kts. EG 0 0 40.00K 0.00K
LAKESIDE TARRANT CO. TX 04/24/2007 19:57 CST-6 Hail 1.00 in. 0 0 0.00K 0.00K
LAKESIDE TARRANT CO. TX 04/24/2007 19:57 CST-6 Hail 1.25 in. 0 0 0.00K 0.00K
GLEN ROSE SOMERVELL CO. TX 04/24/2007 20:00 CST-6 Thunderstorm Wind 56 kts. EG 0 0 10.00K 0.00K
MERIDIAN BOSQUE CO. TX 04/24/2007 20:00 CST-6 Thunderstorm Wind 78 kts. EG 0 0 20.00K 0.00K
CELINA COLLIN CO. TX 04/24/2007 20:09 CST-6 Flash Flood 0 0 0.00K 0.00K
RIVER OAKS TARRANT CO. TX 04/24/2007 20:12 CST-6 Thunderstorm Wind 52 kts. MG 0 0 0.00K 0.00K
MIDLOTHIAN ELLIS CO. TX 04/24/2007 20:40 CST-6 Thunderstorm Wind 52 kts. MG 0 0 15.00K 0.00K
GRANDVIEW JOHNSON CO. TX 04/24/2007 20:45 CST-6 Thunderstorm Wind 50 kts. EG 0 0 1.00K 0.00K
BLUE RIDGE COLLIN CO. TX 04/24/2007 20:55 CST-6 Thunderstorm Wind 55 kts. MG 0 0 0.00K 0.00K
ROXTON LAMAR CO. TX 04/24/2007 20:55 CST-6 Thunderstorm Wind 50 kts. EG 0 0 1.00K 0.00K
LAKESIDE TARRANT CO. TX 04/24/2007 20:57 CST-6 Hail 1.00 in. 0 0 0.00K 0.00K
CELESTE HUNT CO. TX 04/24/2007 21:30 CST-6 Thunderstorm Wind 61 kts. EG 0 0 10.00K 0.00K
TERRELL KAUFMAN CO. TX 04/24/2007 21:30 CST-6 Thunderstorm Wind 52 kts. MG 0 0 0.00K 0.00K
COMMERCE HUNT CO. TX 04/24/2007 21:35 CST-6 Flash Flood 0 0 0.00K 0.00K
Totals: 0 1 2.525M 0.00K